createdAt,value
2023-04-15T00:00:35.523Z,6.03
2023-04-15T00:01:38.067Z,6.07
2023-04-15T00:02:40.923Z,6.55
2023-04-15T00:03:43.953Z,6.88
2023-04-15T00:04:48.072Z,6.32
2023-04-15T00:05:50.904Z,6.50
2023-04-15T00:06:54.685Z,6.05
2023-04-15T00:07:57.375Z,7.32
2023-04-15T00:09:00.280Z,5.95
2023-04-15T00:10:04.470Z,6.57
2023-04-15T00:11:07.045Z,6.25
2023-04-15T00:12:09.806Z,6.50
2023-04-15T00:13:12.606Z,5.32
2023-04-15T00:14:15.753Z,6.70
2023-04-15T00:15:18.583Z,7.15
2023-04-15T00:16:21.372Z,6.05
2023-04-15T00:17:23.917Z,5.65
2023-04-15T00:18:27.099Z,6.30
2023-04-15T00:19:30.868Z,6.30
2023-04-15T00:20:33.987Z,6.75
2023-04-15T00:21:36.657Z,6.28
2023-04-15T00:22:39.364Z,6.78
2023-04-15T00:23:42.019Z,6.10
2023-04-15T00:24:44.753Z,7.05
2023-04-15T00:25:47.493Z,6.72
2023-04-15T00:26:50.054Z,5.72
2023-04-15T00:27:52.675Z,6.25
2023-04-15T00:28:55.316Z,6.22
2023-04-15T00:29:58.309Z,6.55
2023-04-15T00:31:00.923Z,6.22
2023-04-15T00:32:03.532Z,5.95
2023-04-15T00:33:06.830Z,6.20
2023-04-15T00:34:09.614Z,6.22
2023-04-15T00:35:12.263Z,5.13
2023-04-15T00:36:14.840Z,6.00
2023-04-15T00:37:17.399Z,5.50
2023-04-15T00:38:20.193Z,5.72
2023-04-15T00:39:22.994Z,5.68
2023-04-15T00:40:26.262Z,6.40
2023-04-15T00:41:29.033Z,5.38
2023-04-15T00:42:31.797Z,6.00
2023-04-15T00:43:34.402Z,5.75
2023-04-15T00:44:37.069Z,5.05
2023-04-15T00:45:39.660Z,5.18
2023-04-15T00:46:44.329Z,6.07
2023-04-15T00:47:47.057Z,6.15
2023-04-15T00:48:50.709Z,5.35
2023-04-15T00:49:53.269Z,5.75
2023-04-15T00:50:56.059Z,5.80
2023-04-15T00:51:58.963Z,5.63
2023-04-15T00:53:01.486Z,6.07
2023-04-15T00:54:05.270Z,6.05
2023-04-15T00:55:08.837Z,6.38
2023-04-15T00:56:11.637Z,5.82
2023-04-15T00:57:14.267Z,5.68
2023-04-15T00:58:17.464Z,6.45
2023-04-15T00:59:20.739Z,6.40
2023-04-15T01:00:23.451Z,6.18
2023-04-15T01:01:26.998Z,5.72
2023-04-15T01:02:29.789Z,5.50
2023-04-15T01:03:32.629Z,6.22
2023-04-15T01:04:36.844Z,6.50
2023-04-15T01:05:39.544Z,6.65
2023-04-15T01:06:42.373Z,5.50
2023-04-15T01:07:47.916Z,5.82
2023-04-15T01:08:50.944Z,6.45
2023-04-15T01:09:53.648Z,7.03
2023-04-15T01:10:57.934Z,5.95
2023-04-15T01:12:00.453Z,5.68
2023-04-15T01:13:03.583Z,6.20
2023-04-15T01:14:06.082Z,5.60
2023-04-15T01:15:11.063Z,5.78
2023-04-15T01:16:14.557Z,6.22
2023-04-15T01:17:19.161Z,5.55
2023-04-15T01:18:22.141Z,5.88
2023-04-15T01:19:24.761Z,5.75
2023-04-15T01:20:27.573Z,5.25
2023-04-15T01:21:30.337Z,6.05
2023-04-15T01:22:34.486Z,6.68
2023-04-15T01:23:41.214Z,5.50
2023-04-15T01:25:08.350Z,5.65
2023-04-15T01:26:11.251Z,5.50
2023-04-15T01:27:14.921Z,5.55
2023-04-15T01:28:17.489Z,6.07
2023-04-15T01:29:20.086Z,5.93
2023-04-15T01:30:22.628Z,6.13
2023-04-15T01:31:25.196Z,5.78
2023-04-15T01:32:28.104Z,5.57
2023-04-15T01:33:30.715Z,5.38
2023-04-15T01:34:35.652Z,6.03
2023-04-15T01:35:39.003Z,6.70
2023-04-15T01:36:42.059Z,5.75
2023-04-15T01:37:45.176Z,6.15
2023-04-15T01:38:47.977Z,5.80
2023-04-15T01:39:50.766Z,6.03
2023-04-15T01:40:53.396Z,6.10
2023-04-15T01:41:55.875Z,6.22
2023-04-15T01:43:00.595Z,6.55
2023-04-15T01:44:03.268Z,6.18
2023-04-15T01:45:07.271Z,6.22
2023-04-15T01:46:09.933Z,6.50
2023-04-15T01:47:12.632Z,6.05
2023-04-15T01:48:15.249Z,5.60
2023-04-15T01:49:17.867Z,6.00
2023-04-15T01:50:20.983Z,6.22
2023-04-15T01:51:24.181Z,6.55
2023-04-15T01:52:26.744Z,5.47
2023-04-15T01:53:29.531Z,5.72
2023-04-15T01:54:32.179Z,6.28
2023-04-15T01:55:34.740Z,5.72
2023-04-15T01:56:37.439Z,5.88
2023-04-15T01:57:40.343Z,6.63
2023-04-15T01:58:42.867Z,6.22
2023-04-15T01:59:47.081Z,6.32
2023-04-15T02:00:50.899Z,6.18
2023-04-15T02:01:53.634Z,6.68
2023-04-15T02:02:56.332Z,6.40
2023-04-15T02:04:01.321Z,6.18
2023-04-15T02:05:05.696Z,6.72
2023-04-15T02:06:08.289Z,5.53
2023-04-15T02:07:10.880Z,6.10
2023-04-15T02:08:13.542Z,6.50
2023-04-15T02:09:16.060Z,6.13
2023-04-15T02:10:21.892Z,6.07
2023-04-15T02:11:24.663Z,6.20
2023-04-15T02:12:28.580Z,7.25
2023-04-15T02:13:31.149Z,7.20
2023-04-15T02:14:33.608Z,6.63
2023-04-15T02:15:36.113Z,5.93
2023-04-15T02:16:41.351Z,6.65
2023-04-15T02:17:46.164Z,6.55
2023-04-15T02:18:52.199Z,6.22
2023-04-15T02:19:56.907Z,7.07
2023-04-15T02:21:00.610Z,6.28
2023-04-15T02:22:03.242Z,6.25
2023-04-15T02:23:07.450Z,6.28
2023-04-15T02:24:10.183Z,6.57
2023-04-15T02:25:12.659Z,6.90
2023-04-15T02:26:15.485Z,6.72
2023-04-15T02:27:18.767Z,6.32
2023-04-15T02:28:21.942Z,6.80
2023-04-15T02:29:24.627Z,6.82
2023-04-15T02:30:27.334Z,6.65
2023-04-15T02:31:30.098Z,6.18
2023-04-15T02:32:35.154Z,7.65
2023-04-15T02:33:37.966Z,6.50
2023-04-15T02:34:42.799Z,6.05
2023-04-15T02:35:45.888Z,6.53
2023-04-15T02:36:49.785Z,6.53
2023-04-15T02:37:52.591Z,6.28
2023-04-15T02:38:55.229Z,6.68
2023-04-15T02:39:58.781Z,6.53
2023-04-15T02:41:01.816Z,6.93
2023-04-15T02:42:06.196Z,7.03
2023-04-15T02:43:08.730Z,6.85
2023-04-15T02:44:13.053Z,7.07
2023-04-15T02:45:16.256Z,7.43
2023-04-15T02:46:19.954Z,6.95
2023-04-15T02:47:23.518Z,7.63
2023-04-15T02:48:26.176Z,7.45
2023-04-15T02:49:31.006Z,7.00
2023-04-15T02:50:33.916Z,6.32
2023-04-15T02:51:36.458Z,7.05
2023-04-15T02:52:42.913Z,7.40
2023-04-15T02:53:49.738Z,7.13
2023-04-15T02:54:53.423Z,6.55
2023-04-15T02:55:55.929Z,6.90
2023-04-15T02:56:58.611Z,6.57
2023-04-15T02:58:01.274Z,6.95
2023-04-15T02:59:04.864Z,7.03
2023-04-15T03:00:09.729Z,6.57
2023-04-15T03:01:14.915Z,7.70
2023-04-15T03:02:17.882Z,7.38
2023-04-15T03:03:20.938Z,7.20
2023-04-15T03:04:23.601Z,6.68
2023-04-15T03:05:26.640Z,7.60
2023-04-15T03:06:29.275Z,6.88
2023-04-15T03:07:32.173Z,7.43
2023-04-15T03:08:35.830Z,6.95
2023-04-15T03:09:40.470Z,8.15
2023-04-15T03:10:43.384Z,6.82
2023-04-15T03:11:46.028Z,6.65
2023-04-15T03:12:49.084Z,7.43
2023-04-15T03:13:56.871Z,7.60
2023-04-15T03:15:08.218Z,7.82
2023-04-15T03:16:14.541Z,7.53
2023-04-15T03:17:18.143Z,7.78
2023-04-15T03:18:21.544Z,8.25
2023-04-15T03:19:24.231Z,7.60
2023-04-15T03:20:26.779Z,7.35
2023-04-15T03:21:29.396Z,7.68
2023-04-15T03:22:33.133Z,8.60
2023-04-15T03:23:35.963Z,7.97
2023-04-15T03:24:38.450Z,7.43
2023-04-15T03:25:41.109Z,7.60
2023-04-15T03:26:43.725Z,7.88
2023-04-15T03:27:50.123Z,8.10
2023-04-15T03:28:53.404Z,8.05
2023-04-15T03:29:56.887Z,7.13
2023-04-15T03:31:01.285Z,7.25
2023-04-15T03:32:04.329Z,7.45
2023-04-15T03:33:09.785Z,7.55
2023-04-15T03:34:13.176Z,6.70
2023-04-15T03:35:15.893Z,7.95
2023-04-15T03:36:18.441Z,8.00
2023-04-15T03:37:21.173Z,6.55
2023-04-15T03:38:23.748Z,8.27
2023-04-15T03:39:26.326Z,8.60
2023-04-15T03:40:29.039Z,7.60
2023-04-15T03:41:33.035Z,8.07
2023-04-15T03:42:35.595Z,7.45
2023-04-15T03:43:38.186Z,7.45
2023-04-15T03:44:40.790Z,7.38
2023-04-15T03:45:43.295Z,7.25
2023-04-15T03:46:45.912Z,7.68
2023-04-15T03:47:49.916Z,7.80
2023-04-15T03:48:52.735Z,7.45
2023-04-15T03:49:55.278Z,7.50
2023-04-15T03:50:57.819Z,7.88
2023-04-15T03:52:00.631Z,8.73
2023-04-15T03:53:03.108Z,7.00
2023-04-15T03:54:05.880Z,6.57
2023-04-15T03:55:09.441Z,7.40
2023-04-15T03:56:11.947Z,6.50
2023-04-15T03:57:14.448Z,7.72
2023-04-15T03:58:16.882Z,7.50
2023-04-15T03:59:19.329Z,6.90
2023-04-15T04:00:21.888Z,7.75
2023-04-15T04:01:24.578Z,8.18
2023-04-15T04:02:28.432Z,7.07
2023-04-15T04:03:31.888Z,7.30
2023-04-15T04:04:34.605Z,6.88
2023-04-15T04:05:39.095Z,7.20
2023-04-15T04:06:41.713Z,7.03
2023-04-15T04:07:44.266Z,7.78
2023-04-15T04:08:46.792Z,7.40
2023-04-15T04:09:49.324Z,6.95
2023-04-15T04:10:51.737Z,7.70
2023-04-15T04:11:54.342Z,8.15
2023-04-15T04:12:56.959Z,7.20
2023-04-15T04:13:59.666Z,7.22
2023-04-15T04:15:02.379Z,7.53
2023-04-15T04:16:05.295Z,6.72
2023-04-15T04:17:08.452Z,7.90
2023-04-15T04:18:11.424Z,6.80
2023-04-15T04:19:15.005Z,7.90
2023-04-15T04:20:17.546Z,7.88
2023-04-15T04:21:21.086Z,7.70
2023-04-15T04:22:24.583Z,7.10
2023-04-15T04:23:27.226Z,7.35
2023-04-15T04:24:29.739Z,7.10
2023-04-15T04:25:32.716Z,7.80
2023-04-15T04:26:35.288Z,7.10
2023-04-15T04:27:38.132Z,8.27
2023-04-15T04:28:40.756Z,7.80
2023-04-15T04:29:43.579Z,6.95
2023-04-15T04:30:46.217Z,6.95
2023-04-15T04:31:48.893Z,7.55
2023-04-15T04:32:51.753Z,7.70
2023-04-15T04:33:54.396Z,8.15
2023-04-15T04:34:56.909Z,7.85
2023-04-15T04:35:59.478Z,8.13
2023-04-15T04:37:02.049Z,7.18
2023-04-15T04:38:04.968Z,7.25
2023-04-15T04:39:07.994Z,7.22
2023-04-15T04:40:11.256Z,7.18
2023-04-15T04:41:13.859Z,7.00
2023-04-15T04:42:16.744Z,7.57
2023-04-15T04:43:19.235Z,7.53
2023-04-15T04:44:22.590Z,6.30
2023-04-15T04:45:25.161Z,7.22
2023-04-15T04:46:27.858Z,6.63
2023-04-15T04:47:30.499Z,7.05
2023-04-15T04:48:33.429Z,7.80
2023-04-15T04:49:35.961Z,7.20
2023-04-15T04:50:38.512Z,7.57
2023-04-15T04:51:41.247Z,7.85
2023-04-15T04:52:43.948Z,7.85
2023-04-15T04:53:46.730Z,7.18
2023-04-15T04:54:49.467Z,8.30
2023-04-15T04:55:52.367Z,7.25
2023-04-15T04:56:54.902Z,7.13
2023-04-15T04:57:57.476Z,6.85
2023-04-15T04:59:00.281Z,7.40
2023-04-15T05:00:05.103Z,6.78
2023-04-15T05:01:07.943Z,7.75
2023-04-15T05:02:11.005Z,7.75
2023-04-15T05:03:13.897Z,6.32
2023-04-15T05:04:16.707Z,6.60
2023-04-15T05:05:19.601Z,6.45
2023-04-15T05:06:22.231Z,6.60
2023-04-15T05:07:24.832Z,6.50
2023-04-15T05:08:27.368Z,6.55
2023-04-15T05:09:32.244Z,6.85
2023-04-15T05:10:34.758Z,6.93
2023-04-15T05:11:37.421Z,7.18
2023-04-15T05:12:40.121Z,6.80
2023-04-15T05:13:42.781Z,6.97
2023-04-15T05:14:46.857Z,7.13
2023-04-15T05:15:49.509Z,6.65
2023-04-15T05:16:52.410Z,7.03
2023-04-15T05:17:55.261Z,6.72
2023-04-15T05:18:57.849Z,6.45
2023-04-15T05:20:00.452Z,7.40
2023-04-15T05:21:03.062Z,6.07
2023-04-15T05:22:05.591Z,6.35
2023-04-15T05:23:08.385Z,7.03
2023-04-15T05:24:10.947Z,6.72
2023-04-15T05:25:14.101Z,6.53
2023-04-15T05:26:16.649Z,6.53
2023-04-15T05:27:19.353Z,5.93
2023-04-15T05:28:21.963Z,6.50
2023-04-15T05:29:24.403Z,6.93
2023-04-15T05:30:26.994Z,7.45
2023-04-15T05:31:29.667Z,6.95
2023-04-15T05:32:32.307Z,6.60
2023-04-15T05:33:34.972Z,6.57
2023-04-15T05:34:37.654Z,6.63
2023-04-15T05:35:40.214Z,6.63
2023-04-15T05:36:43.034Z,6.75
2023-04-15T05:37:46.123Z,7.03
2023-04-15T05:38:48.577Z,7.15
2023-04-15T05:39:51.261Z,6.43
2023-04-15T05:40:53.870Z,6.80
2023-04-15T05:41:57.686Z,7.53
2023-04-15T05:43:00.211Z,7.47
2023-04-15T05:44:02.789Z,7.25
2023-04-15T05:45:09.136Z,6.65
2023-04-15T05:46:11.727Z,7.50
2023-04-15T05:47:14.281Z,6.72
2023-04-15T05:48:16.795Z,6.28
2023-04-15T05:49:19.435Z,6.53
2023-04-15T05:50:22.127Z,6.85
2023-04-15T05:51:24.754Z,7.32
2023-04-15T05:52:27.432Z,7.18
2023-04-15T05:53:29.894Z,6.95
2023-04-15T05:54:32.500Z,6.88
2023-04-15T05:55:35.104Z,6.93
2023-04-15T05:56:37.711Z,6.93
2023-04-15T05:57:40.767Z,6.85
2023-04-15T05:58:43.285Z,6.97
2023-04-15T05:59:46.039Z,7.13
2023-04-15T06:00:48.491Z,7.30
2023-04-15T06:01:52.305Z,7.50
2023-04-15T06:02:56.150Z,7.40
2023-04-15T06:03:58.740Z,7.05
2023-04-15T06:05:01.568Z,7.20
2023-04-15T06:06:04.455Z,6.82
2023-04-15T06:07:07.111Z,7.07
2023-04-15T06:08:09.875Z,5.95
2023-04-15T06:09:12.419Z,6.72
2023-04-15T06:10:14.875Z,6.72
2023-04-15T06:11:17.405Z,6.55
2023-04-15T06:12:19.893Z,7.43
2023-04-15T06:13:22.474Z,6.65
2023-04-15T06:14:25.076Z,6.47
2023-04-15T06:15:27.610Z,6.72
2023-04-15T06:16:30.398Z,7.22
2023-04-15T06:17:33.091Z,6.43
2023-04-15T06:18:35.656Z,6.70
2023-04-15T06:19:38.320Z,7.10
2023-04-15T06:20:41.806Z,6.70
2023-04-15T06:21:45.055Z,6.90
2023-04-15T06:22:47.708Z,7.10
2023-04-15T06:23:50.523Z,7.13
2023-04-15T06:24:53.270Z,7.35
2023-04-15T06:25:55.819Z,6.85
2023-04-15T06:26:58.425Z,6.95
2023-04-15T06:28:01.071Z,6.47
2023-04-15T06:29:03.878Z,6.25
2023-04-15T06:30:08.721Z,7.03
2023-04-15T06:31:11.172Z,6.97
2023-04-15T06:32:13.805Z,6.70
2023-04-15T06:33:16.624Z,6.90
2023-04-15T06:34:19.304Z,7.50
2023-04-15T06:35:22.220Z,6.53
2023-04-15T06:36:24.782Z,6.70
2023-04-15T06:37:27.283Z,7.22
2023-04-15T06:38:29.720Z,5.78
2023-04-15T06:39:32.645Z,6.50
2023-04-15T06:40:35.540Z,6.72
2023-04-15T06:41:38.091Z,6.88
2023-04-15T06:42:40.780Z,6.93
2023-04-15T06:43:43.503Z,6.65
2023-04-15T06:44:46.113Z,6.43
2023-04-15T06:45:48.661Z,6.20
2023-04-15T06:46:51.174Z,6.30
2023-04-15T06:47:53.728Z,5.97
2023-04-15T06:48:56.425Z,6.72
2023-04-15T06:49:58.927Z,6.05
2023-04-15T06:51:01.659Z,5.88
2023-04-15T06:52:05.096Z,6.20
2023-04-15T06:53:07.972Z,6.15
2023-04-15T06:54:10.534Z,6.25
2023-04-15T06:55:13.291Z,6.43
2023-04-15T06:56:15.939Z,6.18
2023-04-15T06:57:18.412Z,6.22
2023-04-15T06:58:21.197Z,6.20
2023-04-15T06:59:24.308Z,6.95
2023-04-15T07:00:30.869Z,5.88
2023-04-15T07:01:33.762Z,5.95
2023-04-15T07:02:36.979Z,5.60
2023-04-15T07:03:39.655Z,5.93
2023-04-15T07:04:42.287Z,6.65
2023-04-15T07:05:44.903Z,6.07
2023-04-15T07:06:47.406Z,6.22
2023-04-15T07:07:50.348Z,5.85
2023-04-15T07:08:52.891Z,6.13
2023-04-15T07:09:55.455Z,5.40
2023-04-15T07:10:58.062Z,6.00
2023-04-15T07:12:00.788Z,5.97
2023-04-15T07:13:05.988Z,6.03
2023-04-15T07:14:08.512Z,6.05
2023-04-15T07:15:11.390Z,5.65
2023-04-15T07:16:13.935Z,5.88
2023-04-15T07:17:17.108Z,6.95
2023-04-15T07:18:19.665Z,6.70
2023-04-15T07:19:22.493Z,6.47
2023-04-15T07:20:25.748Z,6.20
2023-04-15T07:21:28.227Z,6.70
2023-04-15T07:22:31.126Z,6.72
2023-04-15T07:23:33.772Z,6.03
2023-04-15T07:24:36.489Z,6.10
2023-04-15T07:25:39.136Z,5.88
2023-04-15T07:26:41.834Z,6.18
2023-04-15T07:27:44.422Z,6.32
2023-04-15T07:28:47.565Z,6.30
2023-04-15T07:29:52.079Z,5.45
2023-04-15T07:30:55.033Z,6.00
2023-04-15T07:31:57.751Z,6.15
2023-04-15T07:33:01.307Z,6.05
2023-04-15T07:34:05.268Z,5.80
2023-04-15T07:35:08.476Z,5.38
2023-04-15T07:36:11.123Z,7.15
2023-04-15T07:37:13.865Z,6.00
2023-04-15T07:38:16.756Z,5.82
2023-04-15T07:39:22.400Z,6.68
2023-04-15T07:40:25.109Z,5.63
2023-04-15T07:41:27.858Z,5.97
2023-04-15T07:42:30.587Z,6.07
2023-04-15T07:43:33.439Z,5.93
2023-04-15T07:44:36.019Z,6.00
2023-04-15T07:45:38.643Z,5.40
2023-04-15T07:46:41.283Z,5.30
2023-04-15T07:47:43.934Z,5.20
2023-04-15T07:48:46.682Z,5.07
2023-04-15T07:49:49.354Z,5.43
2023-04-15T07:50:51.938Z,5.45
2023-04-15T07:51:54.963Z,4.68
2023-04-15T07:52:58.021Z,5.38
2023-04-15T07:54:00.546Z,6.07
2023-04-15T07:55:07.738Z,5.30
2023-04-15T07:56:10.575Z,5.32
2023-04-15T07:57:13.152Z,5.47
2023-04-15T07:58:15.803Z,5.60
2023-04-15T07:59:18.368Z,5.38
2023-04-15T08:00:20.966Z,5.00
2023-04-15T08:01:23.627Z,4.40
2023-04-15T08:02:26.773Z,4.57
2023-04-15T08:03:38.458Z,4.45
2023-04-15T08:04:41.926Z,4.60
2023-04-15T08:05:45.598Z,5.03
2023-04-15T08:06:49.932Z,4.50
2023-04-15T08:07:52.713Z,5.00
2023-04-15T08:08:55.741Z,4.53
2023-04-15T08:09:58.256Z,4.50
2023-04-15T08:11:00.782Z,4.32
2023-04-15T08:12:04.073Z,4.93
2023-04-15T08:13:06.741Z,5.05
2023-04-15T08:14:09.254Z,4.32
2023-04-15T08:15:13.196Z,4.60
2023-04-15T08:16:24.648Z,4.40
2023-04-15T08:17:27.240Z,4.53
2023-04-15T08:18:29.733Z,4.60
2023-04-15T08:19:32.472Z,4.70
2023-04-15T08:20:35.205Z,3.90
2023-04-15T08:21:37.717Z,4.70
2023-04-15T08:22:41.055Z,4.55
2023-04-15T08:23:44.569Z,4.18
2023-04-15T08:24:47.296Z,4.40
2023-04-15T08:25:49.838Z,4.47
2023-04-15T08:26:53.920Z,3.72
2023-04-15T08:27:58.027Z,4.43
2023-04-15T08:29:00.963Z,3.83
2023-04-15T08:30:06.852Z,4.15
2023-04-15T08:31:09.835Z,3.88
2023-04-15T08:32:12.752Z,3.97
2023-04-15T08:33:15.264Z,4.05
2023-04-15T08:34:18.258Z,3.63
2023-04-15T08:35:21.237Z,3.83
2023-04-15T08:36:23.777Z,4.00
2023-04-15T08:37:27.035Z,4.57
2023-04-15T08:38:29.523Z,4.07
2023-04-15T08:39:31.989Z,4.32
2023-04-15T08:40:42.021Z,3.80
2023-04-15T08:41:52.678Z,4.07
2023-04-15T08:42:57.731Z,3.80
2023-04-15T08:44:05.092Z,3.88
2023-04-15T08:45:11.178Z,3.97
2023-04-15T08:46:13.776Z,3.92
2023-04-15T08:47:21.715Z,3.88
2023-04-15T08:48:24.664Z,3.92
2023-04-15T08:49:28.603Z,3.33
2023-04-15T08:50:32.579Z,3.75
2023-04-15T08:51:35.145Z,3.75
2023-04-15T08:52:37.836Z,4.13
2023-04-15T08:53:40.569Z,3.70
2023-04-15T08:54:43.181Z,4.18
2023-04-15T08:55:46.808Z,3.88
2023-04-15T08:56:50.748Z,3.75
2023-04-15T08:57:53.473Z,3.70
2023-04-15T08:58:56.275Z,3.83
2023-04-15T08:59:59.312Z,3.60
2023-04-15T09:01:01.975Z,3.70
2023-04-15T09:02:05.189Z,3.63
2023-04-15T09:03:08.956Z,3.72
2023-04-15T09:04:12.641Z,3.30
2023-04-15T09:05:16.569Z,3.85
2023-04-15T09:06:19.183Z,3.30
2023-04-15T09:07:21.822Z,3.53
2023-04-15T09:08:24.402Z,3.08
2023-04-15T09:09:28.091Z,3.35
2023-04-15T09:10:30.976Z,3.53
2023-04-15T09:11:33.513Z,3.95
2023-04-15T09:12:37.047Z,3.15
2023-04-15T09:13:40.098Z,3.47
2023-04-15T09:14:43.489Z,2.97
2023-04-15T09:15:46.078Z,3.53
2023-04-15T09:16:58.829Z,3.55
2023-04-15T09:18:01.597Z,3.38
2023-04-15T09:19:21.914Z,3.70
2023-04-15T09:20:24.660Z,3.35
2023-04-15T09:21:27.921Z,3.22
2023-04-15T09:22:33.373Z,3.22
2023-04-15T09:23:37.008Z,3.40
2023-04-15T09:24:42.305Z,3.60
2023-04-15T09:25:45.618Z,3.17
2023-04-15T09:26:48.371Z,4.45
2023-04-15T09:27:58.012Z,3.70
2023-04-15T09:29:15.432Z,3.05
2023-04-15T09:30:18.651Z,3.65
2023-04-15T09:31:30.309Z,3.63
2023-04-15T09:32:32.768Z,3.55
2023-04-15T09:33:35.423Z,2.92
2023-04-15T09:34:38.501Z,3.00
2023-04-15T09:35:41.506Z,3.35
2023-04-15T09:36:49.098Z,2.58
2023-04-15T09:37:53.814Z,3.40
2023-04-15T09:38:59.963Z,2.95
2023-04-15T09:40:02.614Z,2.80
2023-04-15T09:41:19.654Z,3.30
2023-04-15T09:42:25.198Z,3.15
2023-04-15T09:43:40.806Z,3.03
2023-04-15T09:44:43.761Z,2.63
2023-04-15T09:45:53.694Z,3.10
2023-04-15T09:46:56.193Z,2.97
2023-04-15T09:48:00.056Z,3.40
2023-04-15T09:49:09.696Z,2.95
2023-04-15T09:50:12.149Z,2.75
2023-04-15T09:51:15.513Z,3.20
2023-04-15T09:52:17.908Z,3.13
2023-04-15T09:53:22.013Z,2.92
2023-04-15T09:54:24.571Z,2.47
2023-04-15T09:55:27.337Z,3.10
2023-04-15T09:56:36.369Z,3.13
2023-04-15T09:57:41.227Z,3.30
2023-04-15T09:58:44.334Z,2.63
2023-04-15T09:59:46.837Z,2.78
2023-04-15T10:00:51.691Z,2.58
2023-04-15T10:01:54.262Z,3.10
2023-04-15T10:02:57.066Z,2.90
2023-04-15T10:04:05.900Z,2.78
2023-04-15T10:05:12.093Z,3.28
2023-04-15T10:06:15.088Z,2.60
2023-04-15T10:07:20.648Z,3.08
2023-04-15T10:08:26.242Z,2.90
2023-04-15T10:09:29.034Z,2.97
2023-04-15T10:10:33.517Z,2.78
2023-04-15T10:11:36.266Z,2.35
2023-04-15T10:12:40.818Z,2.50
2023-04-15T10:13:43.728Z,2.30
2023-04-15T10:14:59.550Z,2.63
2023-04-15T10:16:13.023Z,2.88
2023-04-15T10:17:18.561Z,2.83
2023-04-15T10:18:21.809Z,2.72
2023-04-15T10:19:26.182Z,2.53
2023-04-15T10:20:30.027Z,2.92
2023-04-15T10:21:32.586Z,2.70
2023-04-15T10:22:38.109Z,2.03
2023-04-15T10:23:41.537Z,3.35
2023-04-15T10:24:45.430Z,2.63
2023-04-15T10:25:49.468Z,2.72
2023-04-15T10:26:52.768Z,2.58
2023-04-15T10:27:56.514Z,2.30
2023-04-15T10:29:00.330Z,2.58
2023-04-15T10:30:03.906Z,2.90
2023-04-15T10:31:07.404Z,2.83
2023-04-15T10:32:10.816Z,2.72
2023-04-15T10:33:13.716Z,2.60
2023-04-15T10:34:16.677Z,2.90
2023-04-15T10:35:20.755Z,2.75
2023-04-15T10:36:23.568Z,2.70
2023-04-15T10:37:39.002Z,2.50
2023-04-15T10:38:43.386Z,2.70
2023-04-15T10:39:46.063Z,2.60
2023-04-15T10:40:50.756Z,2.42
2023-04-15T10:42:11.343Z,2.50
2023-04-15T10:43:25.629Z,2.80
2023-04-15T10:44:28.220Z,2.50
2023-04-15T10:45:37.943Z,2.60
2023-04-15T10:46:45.144Z,2.28
2023-04-15T10:47:53.150Z,2.35
2023-04-15T10:48:56.086Z,2.83
2023-04-15T10:50:00.476Z,2.63
2023-04-15T10:51:05.063Z,2.70
2023-04-15T10:52:08.642Z,2.75
2023-04-15T10:53:11.306Z,3.05
2023-04-15T10:54:15.985Z,2.40
2023-04-15T10:55:26.232Z,3.05
2023-04-15T10:56:30.258Z,2.20
2023-04-15T10:57:38.728Z,2.38
2023-04-15T10:58:45.551Z,2.65
2023-04-15T10:59:59.689Z,2.78
2023-04-15T11:01:02.826Z,2.45
2023-04-15T11:02:07.378Z,3.45
2023-04-15T11:03:10.647Z,2.47
2023-04-15T11:04:13.555Z,2.60
2023-04-15T11:05:17.782Z,2.75
2023-04-15T11:06:20.905Z,2.47
2023-04-15T11:07:46.720Z,2.50
2023-04-15T11:09:02.445Z,2.72
2023-04-15T11:10:31.189Z,3.05
2023-04-15T11:12:09.852Z,2.53
2023-04-15T11:13:12.462Z,2.55
2023-04-15T11:14:17.711Z,2.05
2023-04-15T11:15:33.798Z,2.75
2023-04-15T11:16:45.030Z,2.65
2023-04-15T11:17:47.839Z,2.58
2023-04-15T11:18:56.788Z,2.42
2023-04-15T11:19:59.339Z,2.85
2023-04-15T11:21:06.374Z,2.58
2023-04-15T11:22:12.409Z,2.28
2023-04-15T11:23:16.113Z,2.53
2023-04-15T11:24:28.791Z,2.45
2023-04-15T11:25:33.589Z,2.67
2023-04-15T11:26:36.620Z,2.40
2023-04-15T11:27:39.200Z,2.47
2023-04-15T11:28:43.548Z,2.53
2023-04-15T11:29:46.010Z,2.05
2023-04-15T11:30:48.569Z,2.35
2023-04-15T11:31:51.407Z,2.83
2023-04-15T11:32:56.250Z,2.67
2023-04-15T11:34:01.637Z,2.50
2023-04-15T11:35:04.702Z,2.47
2023-04-15T11:36:08.037Z,2.80
2023-04-15T11:37:10.812Z,2.47
2023-04-15T11:38:15.559Z,2.60
2023-04-15T11:39:18.290Z,2.70
2023-04-15T11:40:30.827Z,2.47
2023-04-15T11:41:33.385Z,2.28
2023-04-15T11:42:48.684Z,2.92
2023-04-15T11:43:53.014Z,2.38
2023-04-15T11:45:15.467Z,2.83
2023-04-15T11:46:18.219Z,2.85
2023-04-15T11:47:24.644Z,2.63
2023-04-15T11:48:29.188Z,2.67
2023-04-15T11:49:34.146Z,2.60
2023-04-15T11:50:38.045Z,2.92
2023-04-15T11:51:40.609Z,2.55
2023-04-15T11:52:55.532Z,2.50
2023-04-15T11:53:58.503Z,2.88
2023-04-15T11:55:04.542Z,2.42
2023-04-15T11:56:08.792Z,2.72
2023-04-15T11:57:11.427Z,2.35
2023-04-15T11:58:18.786Z,2.85
2023-04-15T11:59:21.430Z,2.75
2023-04-15T12:00:25.144Z,2.60
2023-04-15T12:01:39.449Z,2.50
2023-04-15T12:02:42.182Z,2.83
2023-04-15T12:03:49.622Z,2.03
2023-04-15T12:05:04.163Z,2.30
2023-04-15T12:06:25.663Z,2.08
2023-04-15T12:07:28.769Z,2.45
2023-04-15T12:08:55.830Z,2.30
2023-04-15T12:09:58.613Z,2.10
2023-04-15T12:11:01.085Z,1.90
2023-04-15T12:12:03.769Z,2.38
2023-04-15T12:13:10.251Z,2.35
2023-04-15T12:14:28.267Z,2.15
2023-04-15T12:15:31.000Z,2.28
2023-04-15T12:16:49.138Z,2.30
2023-04-15T12:17:55.772Z,2.28
2023-04-15T12:18:59.683Z,2.00
2023-04-15T12:20:02.256Z,2.42
2023-04-15T12:21:14.112Z,2.20
2023-04-15T12:22:17.549Z,2.25
2023-04-15T12:23:20.846Z,2.00
2023-04-15T12:24:23.780Z,2.10
2023-04-15T12:25:36.171Z,2.10
2023-04-15T12:26:58.546Z,2.55
2023-04-15T12:28:01.174Z,2.00
2023-04-15T12:29:08.338Z,2.17
2023-04-15T12:30:11.887Z,2.00
2023-04-15T12:31:14.909Z,1.95
2023-04-15T12:32:20.818Z,1.92
2023-04-15T12:33:23.458Z,2.42
2023-04-15T12:34:55.302Z,2.05
2023-04-15T12:35:58.168Z,2.28
2023-04-15T12:37:02.368Z,2.30
2023-04-15T12:38:05.037Z,2.58
2023-04-15T12:39:07.581Z,2.38
2023-04-15T12:40:10.557Z,2.30
2023-04-15T12:41:13.388Z,2.45
2023-04-15T12:42:16.945Z,2.17
2023-04-15T12:43:19.559Z,1.70
2023-04-15T12:44:24.123Z,2.33
2023-04-15T12:45:29.409Z,2.10
2023-04-15T12:46:32.831Z,2.22
2023-04-15T12:47:35.533Z,2.42
2023-04-15T12:48:38.288Z,2.10
2023-04-15T12:49:41.317Z,2.08
2023-04-15T12:50:45.392Z,2.20
2023-04-15T12:51:53.038Z,2.28
2023-04-15T12:52:55.587Z,2.33
2023-04-15T12:53:58.730Z,2.25
2023-04-15T12:55:01.280Z,2.40
2023-04-15T12:56:03.981Z,1.75
2023-04-15T12:57:07.635Z,2.08
2023-04-15T12:58:11.895Z,2.03
2023-04-15T12:59:15.087Z,2.13
2023-04-15T13:00:18.002Z,2.42
2023-04-15T13:01:21.491Z,2.42
2023-04-15T13:02:25.864Z,1.92
2023-04-15T13:03:28.871Z,2.20
2023-04-15T13:04:32.088Z,1.95
2023-04-15T13:05:37.023Z,1.80
2023-04-15T13:06:39.600Z,2.03
2023-04-15T13:07:42.574Z,2.00
2023-04-15T13:08:57.159Z,2.00
2023-04-15T13:10:00.661Z,1.75
2023-04-15T13:11:03.939Z,2.13
2023-04-15T13:12:06.677Z,2.00
2023-04-15T13:13:09.457Z,1.67
2023-04-15T13:14:13.106Z,1.75
2023-04-15T13:15:16.048Z,2.10
2023-04-15T13:16:19.249Z,2.05
2023-04-15T13:17:22.116Z,2.28
2023-04-15T13:18:24.844Z,2.08
2023-04-15T13:19:27.438Z,1.90
2023-04-15T13:20:30.080Z,1.55
2023-04-15T13:21:35.701Z,2.03
2023-04-15T13:22:38.838Z,2.17
2023-04-15T13:23:44.531Z,1.80
2023-04-15T13:24:47.218Z,2.00
2023-04-15T13:25:49.683Z,2.03
2023-04-15T13:26:53.606Z,2.30
2023-04-15T13:27:57.666Z,2.08
2023-04-15T13:29:02.109Z,2.70
2023-04-15T13:30:06.205Z,2.30
2023-04-15T13:31:09.016Z,1.77
2023-04-15T13:32:11.748Z,2.10
2023-04-15T13:33:14.477Z,2.42
2023-04-15T13:34:19.509Z,2.13
2023-04-15T13:35:22.069Z,1.95
2023-04-15T13:36:24.711Z,2.03
2023-04-15T13:37:28.574Z,1.60
2023-04-15T13:38:31.773Z,1.77
2023-04-15T13:39:34.290Z,2.22
2023-04-15T13:40:36.929Z,1.50
2023-04-15T13:41:40.574Z,1.50
2023-04-15T13:42:43.218Z,1.42
2023-04-15T13:43:46.395Z,1.40
2023-04-15T13:44:50.392Z,1.58
2023-04-15T13:45:52.968Z,1.67
2023-04-15T13:46:55.723Z,1.60
2023-04-15T13:47:58.343Z,1.90
2023-04-15T13:49:01.010Z,1.42
2023-04-15T13:50:03.880Z,1.45
2023-04-15T13:51:06.441Z,2.00
2023-04-15T13:52:09.044Z,1.88
2023-04-15T13:53:12.591Z,2.20
2023-04-15T13:54:15.107Z,2.30
2023-04-15T13:55:19.953Z,1.80
2023-04-15T13:56:24.238Z,2.17
2023-04-15T13:57:26.721Z,2.00
2023-04-15T13:58:29.153Z,1.90
2023-04-15T13:59:33.000Z,1.83
2023-04-15T14:00:37.849Z,2.20
2023-04-15T14:01:41.557Z,1.80
2023-04-15T14:02:44.346Z,1.40
2023-04-15T14:03:47.017Z,1.92
2023-04-15T14:04:50.028Z,1.40
2023-04-15T14:05:56.078Z,1.63
2023-04-15T14:06:59.107Z,1.52
2023-04-15T14:08:01.690Z,1.60
2023-04-15T14:09:04.462Z,1.35
2023-04-15T14:10:07.892Z,1.20
2023-04-15T14:11:10.642Z,1.20
2023-04-15T14:12:13.190Z,1.20